createdAt,value
2023-03-04T00:01:40.202Z,5.20
2023-03-04T00:04:07.226Z,5.20
2023-03-04T00:06:34.447Z,5.10
2023-03-04T00:09:01.497Z,5.10
2023-03-04T00:11:28.511Z,5.10
2023-03-04T00:13:56.049Z,5.10
2023-03-04T00:16:23.807Z,5.10
2023-03-04T00:18:50.810Z,5.10
2023-03-04T00:21:17.758Z,5.10
2023-03-04T00:23:44.762Z,5.10
2023-03-04T00:26:13.347Z,5.10
2023-03-04T00:28:42.649Z,5.10
2023-03-04T00:31:10.757Z,5.10
2023-03-04T00:33:38.470Z,5.10
2023-03-04T00:36:05.911Z,5.10
2023-03-04T00:38:32.989Z,5.10
2023-03-04T00:41:00.047Z,5.00
2023-03-04T00:43:27.121Z,5.00
2023-03-04T00:45:54.194Z,5.00
2023-03-04T00:48:21.295Z,5.00
2023-03-04T00:50:49.396Z,5.10
2023-03-04T00:53:16.377Z,5.10
2023-03-04T00:55:43.689Z,5.10
2023-03-04T00:58:10.961Z,5.10
2023-03-04T01:00:38.118Z,5.10
2023-03-04T01:03:05.256Z,5.10
2023-03-04T01:05:34.365Z,5.10
2023-03-04T01:08:01.771Z,5.10
2023-03-04T01:10:28.837Z,5.10
2023-03-04T01:12:55.956Z,5.10
2023-03-04T01:15:23.484Z,5.00
2023-03-04T01:17:50.609Z,5.00
2023-03-04T01:20:18.180Z,5.10
2023-03-04T01:22:45.186Z,5.10
2023-03-04T01:25:15.446Z,5.10
2023-03-04T01:27:42.561Z,5.10
2023-03-04T01:30:10.371Z,5.10
2023-03-04T01:32:37.369Z,5.10
2023-03-04T01:35:04.718Z,5.10
2023-03-04T01:37:31.667Z,5.00
2023-03-04T01:39:58.623Z,5.00
2023-03-04T01:42:27.951Z,5.00
2023-03-04T01:44:54.928Z,5.00
2023-03-04T01:47:24.169Z,5.00
2023-03-04T01:49:55.469Z,5.00
2023-03-04T01:52:22.784Z,5.00
2023-03-04T01:54:50.720Z,4.90
2023-03-04T01:57:20.892Z,5.00
2023-03-04T02:00:08.328Z,5.00
2023-03-04T02:02:41.006Z,4.90
2023-03-04T02:05:08.319Z,4.90
2023-03-04T02:07:35.398Z,5.00
2023-03-04T02:10:02.665Z,4.90
2023-03-04T02:12:29.958Z,5.00
2023-03-04T02:14:57.038Z,4.90
2023-03-04T02:17:28.572Z,4.90
2023-03-04T02:20:20.586Z,4.90
2023-03-04T02:23:04.450Z,5.00
2023-03-04T02:25:42.709Z,4.90
2023-03-04T02:28:09.969Z,4.90
2023-03-04T02:30:37.254Z,5.00
2023-03-04T02:33:11.398Z,4.90
2023-03-04T02:35:38.434Z,4.90
2023-03-04T02:38:05.536Z,4.90
2023-03-04T02:40:34.370Z,4.90
2023-03-04T02:43:01.745Z,5.00
2023-03-04T02:45:49.659Z,4.90
2023-03-04T02:48:21.919Z,4.90
2023-03-04T02:50:52.437Z,4.80
2023-03-04T02:53:20.950Z,4.80
2023-03-04T02:55:49.543Z,4.80
2023-03-04T02:58:17.523Z,4.80
2023-03-04T03:00:44.456Z,4.90
2023-03-04T03:03:12.325Z,4.90
2023-03-04T03:05:39.854Z,4.90
2023-03-04T03:08:08.673Z,4.90
2023-03-04T03:10:35.723Z,5.00
2023-03-04T03:13:03.679Z,5.00
2023-03-04T03:15:30.739Z,5.00
2023-03-04T03:17:58.311Z,5.10
2023-03-04T03:20:25.486Z,5.10
2023-03-04T03:22:52.499Z,5.10
2023-03-04T03:25:19.477Z,5.10
2023-03-04T03:27:46.551Z,5.10
2023-03-04T03:30:15.876Z,5.10
2023-03-04T03:32:42.916Z,5.20
2023-03-04T03:35:10.714Z,5.20
2023-03-04T03:37:37.867Z,5.20
2023-03-04T03:40:05.429Z,5.20
2023-03-04T03:42:32.349Z,5.20
2023-03-04T03:44:59.307Z,5.20
2023-03-04T03:47:26.244Z,5.20
2023-03-04T03:49:53.237Z,5.20
2023-03-04T03:52:20.335Z,5.20
2023-03-04T03:54:47.433Z,5.30
2023-03-04T03:57:14.403Z,5.30
2023-03-04T03:59:41.685Z,5.30
2023-03-04T04:02:08.691Z,5.30
2023-03-04T04:04:35.870Z,5.40
2023-03-04T04:07:03.073Z,5.40
2023-03-04T04:09:30.339Z,5.40
2023-03-04T04:11:57.240Z,5.40
2023-03-04T04:14:24.263Z,5.40
2023-03-04T04:16:51.171Z,5.50
2023-03-04T04:19:19.826Z,5.50
2023-03-04T04:21:47.521Z,5.50
2023-03-04T04:24:14.789Z,5.50
2023-03-04T04:26:42.012Z,5.50
2023-03-04T04:29:10.371Z,5.50
2023-03-04T04:31:37.374Z,5.50
2023-03-04T04:34:04.349Z,5.60
2023-03-04T04:36:31.460Z,5.60
2023-03-04T04:38:58.938Z,5.60
2023-03-04T04:41:29.951Z,5.60
2023-03-04T04:43:57.257Z,5.60
2023-03-04T04:46:24.353Z,5.60
2023-03-04T04:48:51.483Z,5.60
2023-03-04T04:51:18.492Z,5.60
2023-03-04T04:53:45.537Z,5.60
2023-03-04T04:56:18.502Z,5.60
2023-03-04T04:58:46.397Z,5.60
2023-03-04T05:01:14.391Z,5.70
2023-03-04T05:03:42.127Z,5.60
2023-03-04T05:06:11.559Z,5.70
2023-03-04T05:08:38.658Z,5.70
2023-03-04T05:11:07.073Z,5.70
2023-03-04T05:13:34.389Z,5.60
2023-03-04T05:16:01.715Z,5.70
2023-03-04T05:18:29.240Z,5.70
2023-03-04T05:20:59.164Z,5.60
2023-03-04T05:23:28.309Z,5.60
2023-03-04T05:25:55.997Z,5.60
2023-03-04T05:28:23.280Z,5.60
2023-03-04T05:30:50.795Z,5.60
2023-03-04T05:33:18.864Z,5.60
2023-03-04T05:35:48.858Z,5.60
2023-03-04T05:38:18.017Z,5.50
2023-03-04T05:40:46.287Z,5.50
2023-03-04T05:43:14.016Z,5.50
2023-03-04T05:45:42.101Z,5.50
2023-03-04T05:48:09.746Z,5.50
2023-03-04T05:50:36.775Z,5.50
2023-03-04T05:53:03.801Z,5.50
2023-03-04T05:55:30.992Z,5.50
2023-03-04T05:57:58.663Z,5.50
2023-03-04T06:00:26.682Z,5.50
2023-03-04T06:02:54.038Z,5.50
2023-03-04T06:05:21.356Z,5.50
2023-03-04T06:07:48.465Z,5.40
2023-03-04T06:10:17.818Z,5.50
2023-03-04T06:12:44.832Z,5.50
2023-03-04T06:15:12.447Z,5.40
2023-03-04T06:17:42.236Z,5.40
2023-03-04T06:20:11.998Z,5.40
2023-03-04T06:22:39.254Z,5.40
2023-03-04T06:25:06.928Z,5.40
2023-03-04T06:27:34.193Z,5.40
2023-03-04T06:30:02.110Z,5.50
2023-03-04T06:32:29.257Z,5.50
2023-03-04T06:34:56.385Z,5.50
2023-03-04T06:37:23.799Z,5.50
2023-03-04T06:39:50.751Z,5.40
2023-03-04T06:42:17.993Z,5.40
2023-03-04T06:44:45.081Z,5.40
2023-03-04T06:47:12.073Z,5.40
2023-03-04T06:49:39.046Z,5.50
2023-03-04T06:52:06.178Z,5.50
2023-03-04T06:54:33.458Z,5.50
2023-03-04T06:57:00.629Z,5.50
2023-03-04T06:59:27.659Z,5.50
2023-03-04T07:01:55.192Z,5.50
2023-03-04T07:04:23.562Z,5.60
2023-03-04T07:06:51.568Z,5.60
2023-03-04T07:09:19.344Z,5.60
2023-03-04T07:11:46.619Z,5.60
2023-03-04T07:14:13.666Z,5.60
2023-03-04T07:16:41.446Z,5.60
2023-03-04T07:19:08.625Z,5.70
2023-03-04T07:21:35.883Z,5.70
2023-03-04T07:24:02.999Z,5.70
2023-03-04T07:26:30.084Z,5.70
2023-03-04T07:28:59.415Z,5.80
2023-03-04T07:31:30.307Z,5.80
2023-03-04T07:34:25.789Z,5.80
2023-03-04T07:36:53.020Z,5.80
2023-03-04T07:39:20.149Z,5.80
2023-03-04T07:41:47.164Z,5.80
2023-03-04T07:44:14.404Z,5.90
2023-03-04T07:46:41.857Z,5.90
2023-03-04T07:49:11.513Z,5.90
2023-03-04T07:51:38.622Z,5.90
2023-03-04T07:54:05.651Z,6.00
2023-03-04T07:56:34.520Z,6.00
2023-03-04T07:59:02.242Z,6.00
2023-03-04T08:01:32.611Z,6.00
2023-03-04T08:04:00.066Z,6.00
2023-03-04T08:06:30.450Z,6.10
2023-03-04T08:09:03.680Z,6.10
2023-03-04T08:11:31.234Z,6.10
2023-03-04T08:13:59.094Z,6.10
2023-03-04T08:16:26.781Z,6.10
2023-03-04T08:18:56.710Z,6.10
2023-03-04T08:21:25.117Z,6.20
2023-03-04T08:23:52.613Z,6.20
2023-03-04T08:26:26.433Z,6.20
2023-03-04T08:28:55.432Z,6.20
2023-03-04T08:31:22.687Z,6.30
2023-03-04T08:33:51.333Z,6.30
2023-03-04T08:36:18.407Z,6.30
2023-03-04T08:38:45.505Z,6.30
2023-03-04T08:41:13.248Z,6.40
2023-03-04T08:43:40.475Z,6.40
2023-03-04T08:46:08.164Z,6.40
2023-03-04T08:48:36.739Z,6.40
2023-03-04T08:51:12.423Z,6.50
2023-03-04T08:53:39.887Z,6.50
2023-03-04T08:56:07.994Z,6.50
2023-03-04T08:58:35.751Z,6.50
2023-03-04T09:01:03.851Z,6.50
2023-03-04T09:03:31.470Z,6.60
2023-03-04T09:05:59.189Z,6.60
2023-03-04T09:08:26.264Z,6.60
2023-03-04T09:10:54.825Z,6.60
2023-03-04T09:13:26.187Z,6.70
2023-03-04T09:15:54.341Z,6.70
2023-03-04T09:18:23.838Z,6.80
2023-03-04T09:20:51.553Z,6.80
2023-03-04T09:23:19.151Z,6.80
2023-03-04T09:25:47.596Z,6.80
2023-03-04T09:28:16.053Z,6.80
2023-03-04T09:30:43.837Z,6.90
2023-03-04T09:33:11.974Z,6.90
2023-03-04T09:35:39.504Z,6.90
2023-03-04T09:38:07.826Z,6.90
2023-03-04T09:40:42.079Z,6.90
2023-03-04T09:43:19.570Z,6.90
2023-03-04T09:45:55.296Z,7.00
2023-03-04T09:48:26.068Z,7.00
2023-03-04T09:51:20.009Z,7.00
2023-03-04T09:54:23.301Z,7.00
2023-03-04T09:56:53.662Z,7.00
2023-03-04T09:59:30.987Z,7.00
2023-03-04T10:02:13.849Z,7.10
2023-03-04T10:05:03.161Z,7.10
2023-03-04T10:07:37.153Z,7.10
2023-03-04T10:10:18.753Z,7.10
2023-03-04T10:12:48.977Z,7.20
2023-03-04T10:15:31.573Z,7.20
2023-03-04T10:18:14.523Z,7.20
2023-03-04T10:20:58.736Z,7.30
2023-03-04T10:23:27.839Z,7.30
2023-03-04T10:25:55.259Z,7.30
2023-03-04T10:28:30.540Z,7.30
2023-03-04T10:31:06.693Z,7.20
2023-03-04T10:33:36.345Z,7.30
2023-03-04T10:36:12.808Z,7.30
2023-03-04T10:38:42.543Z,7.30
2023-03-04T10:41:26.153Z,7.30
2023-03-04T10:44:01.987Z,7.30
2023-03-04T10:46:29.456Z,7.30
2023-03-04T10:48:57.137Z,7.30
2023-03-04T10:51:29.067Z,7.40
2023-03-04T10:54:06.897Z,7.30
2023-03-04T10:56:36.474Z,7.30
2023-03-04T10:59:32.804Z,7.30
2023-03-04T11:02:01.957Z,7.40
2023-03-04T11:04:34.316Z,7.40
2023-03-04T11:07:01.473Z,7.40
2023-03-04T11:09:31.412Z,7.40
2023-03-04T11:12:04.527Z,7.40
2023-03-04T11:14:46.802Z,7.40
2023-03-04T11:17:25.193Z,7.40
2023-03-04T11:20:13.857Z,7.40
2023-03-04T11:22:43.703Z,7.40
2023-03-04T11:25:29.784Z,7.40
2023-03-04T11:28:12.830Z,7.50
2023-03-04T11:30:52.057Z,7.50
2023-03-04T11:34:02.084Z,7.60
2023-03-04T11:36:35.949Z,7.60
2023-03-04T11:39:08.642Z,7.60
2023-03-04T11:41:40.705Z,7.70
2023-03-04T11:44:09.236Z,7.70
2023-03-04T11:46:39.321Z,7.70
2023-03-04T11:49:27.668Z,7.70
2023-03-04T11:52:16.000Z,7.80
2023-03-04T11:55:08.457Z,7.80
2023-03-04T11:57:44.753Z,7.80
2023-03-04T12:00:30.727Z,7.80
2023-03-04T12:03:22.814Z,7.90
2023-03-04T12:06:14.850Z,7.90
2023-03-04T12:09:10.474Z,7.90
2023-03-04T12:12:35.423Z,7.90
2023-03-04T12:15:23.589Z,7.90
2023-03-04T12:18:10.503Z,7.90
2023-03-04T12:20:41.509Z,7.90
2023-03-04T12:23:19.347Z,8.00
2023-03-04T12:25:58.409Z,8.00
2023-03-04T12:28:58.476Z,8.10
2023-03-04T12:31:25.955Z,8.10
2023-03-04T12:34:04.786Z,8.20
2023-03-04T12:36:53.518Z,8.20
2023-03-04T12:39:39.709Z,8.30
2023-03-04T12:42:33.231Z,8.40
2023-03-04T12:45:17.977Z,8.40
2023-03-04T12:48:05.428Z,8.40
2023-03-04T12:50:55.887Z,8.50
2023-03-04T12:53:35.636Z,8.50
2023-03-04T12:56:03.601Z,8.60
2023-03-04T12:58:33.476Z,8.60
2023-03-04T13:01:06.574Z,8.70
2023-03-04T13:03:43.217Z,8.70
2023-03-04T13:06:36.258Z,8.70
2023-03-04T13:09:22.061Z,8.70
2023-03-04T13:11:49.390Z,8.70
2023-03-04T13:14:18.314Z,8.80
2023-03-04T13:16:46.539Z,8.70
2023-03-04T13:19:49.384Z,8.70
2023-03-04T13:22:45.121Z,8.70
2023-03-04T13:25:36.128Z,8.80
2023-03-04T13:28:03.830Z,8.70
2023-03-04T13:30:38.261Z,8.70
2023-03-04T13:33:13.603Z,8.70
2023-03-04T13:35:47.296Z,8.80
2023-03-04T13:38:28.374Z,8.80
2023-03-04T13:41:07.826Z,8.80
2023-03-04T13:43:40.881Z,8.80
2023-03-04T13:46:40.557Z,8.90
2023-03-04T13:49:17.643Z,8.90
2023-03-04T13:51:46.165Z,9.00
2023-03-04T13:54:30.943Z,9.00
2023-03-04T13:57:01.385Z,9.10
2023-03-04T13:59:54.629Z,9.10
2023-03-04T14:02:26.164Z,9.20
2023-03-04T14:05:02.113Z,9.10
2023-03-04T14:07:29.709Z,9.20
2023-03-04T14:10:29.370Z,9.20
2023-03-04T14:12:59.170Z,9.10
2023-03-04T14:15:31.453Z,9.10
2023-03-04T14:18:01.196Z,9.10
2023-03-04T14:20:34.695Z,9.00
2023-03-04T14:23:22.388Z,9.00
2023-03-04T14:25:49.557Z,9.00
2023-03-04T14:28:19.289Z,9.00
2023-03-04T14:30:57.389Z,8.90
2023-03-04T14:33:29.954Z,8.90
2023-03-04T14:36:00.449Z,8.80
2023-03-04T14:38:41.743Z,8.80
2023-03-04T14:41:18.729Z,8.80
2023-03-04T14:44:11.486Z,8.70
2023-03-04T14:47:04.568Z,8.70
2023-03-04T14:49:36.063Z,8.60
2023-03-04T14:52:04.480Z,8.50
2023-03-04T14:54:40.522Z,8.50
2023-03-04T14:57:22.266Z,8.50
2023-03-04T14:59:49.792Z,8.40
2023-03-04T15:02:33.196Z,8.30
2023-03-04T15:05:30.858Z,8.30
2023-03-04T15:08:01.410Z,8.30
2023-03-04T15:10:35.629Z,8.30
2023-03-04T15:13:08.332Z,8.30
2023-03-04T15:15:39.921Z,8.30
2023-03-04T15:18:19.599Z,8.30
2023-03-04T15:20:54.690Z,8.30
2023-03-04T15:23:21.878Z,8.30
2023-03-04T15:26:09.949Z,8.30
2023-03-04T15:28:40.440Z,8.30
2023-03-04T15:31:16.937Z,8.30
2023-03-04T15:33:44.120Z,8.30
2023-03-04T15:36:17.484Z,8.30
2023-03-04T15:38:47.959Z,8.30
2023-03-04T15:41:22.392Z,8.30
2023-03-04T15:43:49.954Z,8.30
2023-03-04T15:46:18.154Z,8.30
2023-03-04T15:48:46.434Z,8.30
2023-03-04T15:51:16.372Z,8.30
2023-03-04T15:53:48.386Z,8.30
2023-03-04T15:56:20.280Z,8.30
2023-03-04T15:58:53.070Z,8.30
2023-03-04T16:01:20.183Z,8.30
2023-03-04T16:03:47.158Z,8.30
2023-03-04T16:06:17.649Z,8.30
2023-03-04T16:08:45.571Z,8.30
2023-03-04T16:11:18.876Z,8.30
2023-03-04T16:13:47.822Z,8.30
2023-03-04T16:16:15.520Z,8.30
2023-03-04T16:18:43.287Z,8.20
2023-03-04T16:21:14.999Z,8.20
2023-03-04T16:23:45.641Z,8.20
2023-03-04T16:26:15.618Z,8.20
2023-03-04T16:28:43.546Z,8.30
2023-03-04T16:31:12.762Z,8.20
2023-03-04T16:33:39.960Z,8.20
2023-03-04T16:36:16.190Z,8.20
2023-03-04T16:38:43.777Z,8.20
2023-03-04T16:41:14.828Z,8.20
2023-03-04T16:43:43.136Z,8.20
2023-03-04T16:46:14.036Z,8.20
2023-03-04T16:48:44.314Z,8.10
2023-03-04T16:51:21.755Z,8.20
2023-03-04T16:54:01.805Z,8.10
2023-03-04T16:56:32.282Z,8.10
2023-03-04T16:59:05.320Z,8.10
2023-03-04T17:01:34.175Z,8.10
2023-03-04T17:04:01.188Z,8.10
2023-03-04T17:06:33.719Z,8.00
2023-03-04T17:09:08.095Z,8.00
2023-03-04T17:11:37.833Z,8.00
2023-03-04T17:14:08.060Z,8.00
2023-03-04T17:16:36.076Z,7.90
2023-03-04T17:19:04.829Z,7.90
2023-03-04T17:21:37.809Z,7.90
2023-03-04T17:24:11.219Z,7.90
2023-03-04T17:26:49.353Z,7.90
2023-03-04T17:29:23.307Z,7.90
2023-03-04T17:31:51.385Z,7.90
2023-03-04T17:34:19.638Z,7.90
2023-03-04T17:36:50.766Z,7.90
2023-03-04T17:39:17.949Z,7.90
2023-03-04T17:41:45.159Z,7.90
2023-03-04T17:44:18.565Z,7.90
2023-03-04T17:46:48.687Z,7.90
2023-03-04T17:49:16.008Z,7.80
2023-03-04T17:51:48.047Z,7.80
2023-03-04T17:54:23.643Z,7.80
2023-03-04T17:56:53.601Z,7.80
2023-03-04T17:59:20.606Z,7.80
2023-03-04T18:01:47.853Z,7.80
2023-03-04T18:04:16.026Z,7.70
2023-03-04T18:06:46.619Z,7.70
2023-03-04T18:09:14.038Z,7.70
2023-03-04T18:11:42.174Z,7.70
2023-03-04T18:14:09.572Z,7.70
2023-03-04T18:16:36.804Z,7.70
2023-03-04T18:19:05.867Z,7.70
2023-03-04T18:21:33.272Z,7.70
2023-03-04T18:24:01.540Z,7.70
2023-03-04T18:26:28.718Z,7.70
2023-03-04T18:28:56.901Z,7.70
2023-03-04T18:31:29.467Z,7.70
2023-03-04T18:33:59.724Z,7.70
2023-03-04T18:36:27.042Z,7.70
2023-03-04T18:38:55.089Z,7.70
2023-03-04T18:41:22.062Z,7.70
2023-03-04T18:43:49.146Z,7.70
2023-03-04T18:46:40.143Z,7.70
2023-03-04T18:49:10.862Z,7.70
2023-03-04T18:51:38.237Z,7.70
2023-03-04T18:54:05.951Z,7.70
2023-03-04T18:56:44.428Z,7.60
2023-03-04T18:59:31.342Z,7.60
2023-03-04T19:02:02.102Z,7.60
2023-03-04T19:04:30.773Z,7.60
2023-03-04T19:06:59.130Z,7.60
2023-03-04T19:09:26.649Z,7.60
2023-03-04T19:11:53.585Z,7.60
2023-03-04T19:14:20.683Z,7.60
2023-03-04T19:16:47.780Z,7.60
2023-03-04T19:19:15.709Z,7.60
2023-03-04T19:21:42.864Z,7.60
2023-03-04T19:24:09.905Z,7.60
2023-03-04T19:26:36.848Z,7.60
2023-03-04T19:29:05.139Z,7.60
2023-03-04T19:31:32.293Z,7.60
2023-03-04T19:33:59.743Z,7.60
2023-03-04T19:36:26.951Z,7.60
2023-03-04T19:38:55.538Z,7.60
2023-03-04T19:41:23.237Z,7.60
2023-03-04T19:43:50.538Z,7.60
2023-03-04T19:46:17.899Z,7.60
2023-03-04T19:48:45.246Z,7.60
2023-03-04T19:51:17.977Z,7.60
2023-03-04T19:53:45.530Z,7.60
2023-03-04T19:56:12.829Z,7.60
2023-03-04T19:58:40.151Z,7.50
2023-03-04T20:01:07.453Z,7.60
2023-03-04T20:03:34.808Z,7.60
2023-03-04T20:06:04.165Z,7.50
2023-03-04T20:08:31.548Z,7.50
2023-03-04T20:10:58.890Z,7.50
2023-03-04T20:13:26.267Z,7.50
2023-03-04T20:15:53.393Z,7.50
2023-03-04T20:18:20.533Z,7.50
2023-03-04T20:20:48.895Z,7.50
2023-03-04T20:23:20.320Z,7.50
2023-03-04T20:25:47.625Z,7.40
2023-03-04T20:28:14.832Z,7.40
2023-03-04T20:30:41.935Z,7.40
2023-03-04T20:33:09.171Z,7.40
2023-03-04T20:35:36.449Z,7.40
2023-03-04T20:38:03.831Z,7.40
2023-03-04T20:40:30.920Z,7.40
2023-03-04T20:42:58.285Z,7.40
2023-03-04T20:45:25.532Z,7.40
2023-03-04T20:47:52.605Z,7.40
2023-03-04T20:50:19.958Z,7.40
2023-03-04T20:52:48.201Z,7.40
2023-03-04T20:55:15.462Z,7.40
2023-03-04T20:57:42.599Z,7.40
2023-03-04T21:00:10.725Z,7.40
2023-03-04T21:02:37.967Z,7.40
2023-03-04T21:05:05.569Z,7.40
2023-03-04T21:07:32.798Z,7.30
2023-03-04T21:10:02.219Z,7.30
2023-03-04T21:12:29.480Z,7.30
2023-03-04T21:14:56.704Z,7.30
2023-03-04T21:17:24.679Z,7.30
2023-03-04T21:19:51.941Z,7.20
2023-03-04T21:22:20.377Z,7.20
2023-03-04T21:24:48.009Z,7.20
2023-03-04T21:27:16.984Z,7.20
2023-03-04T21:29:44.598Z,7.20
2023-03-04T21:32:24.745Z,7.20
2023-03-04T21:34:53.553Z,7.20
2023-03-04T21:37:22.302Z,7.20
2023-03-04T21:39:49.588Z,7.20
2023-03-04T21:42:16.782Z,7.20
2023-03-04T21:44:51.852Z,7.20
2023-03-04T21:47:22.749Z,7.20
2023-03-04T21:49:50.535Z,7.20
2023-03-04T21:52:19.911Z,7.20
2023-03-04T21:54:47.927Z,7.10
2023-03-04T21:57:15.151Z,7.10
2023-03-04T21:59:42.482Z,7.10
2023-03-04T22:02:17.916Z,7.10
2023-03-04T22:04:45.358Z,7.10
2023-03-04T22:07:12.836Z,7.10
2023-03-04T22:09:39.962Z,7.10
2023-03-04T22:12:07.298Z,7.10
2023-03-04T22:14:34.385Z,7.10
2023-03-04T22:17:01.591Z,7.10
2023-03-04T22:19:31.924Z,7.10
2023-03-04T22:21:59.376Z,7.20
2023-03-04T22:24:26.412Z,7.10
2023-03-04T22:26:53.646Z,7.10
2023-03-04T22:29:20.838Z,7.20
2023-03-04T22:31:48.168Z,7.10
2023-03-04T22:34:16.063Z,7.10
2023-03-04T22:36:45.868Z,7.10
2023-03-04T22:39:15.555Z,7.20
2023-03-04T22:41:42.808Z,7.10
2023-03-04T22:44:10.186Z,7.20
2023-03-04T22:46:39.399Z,7.20
2023-03-04T22:49:10.041Z,7.10
2023-03-04T22:51:37.570Z,7.10
2023-03-04T22:54:04.939Z,7.10
2023-03-04T22:56:32.068Z,7.10
2023-03-04T22:58:59.227Z,7.10
2023-03-04T23:01:26.533Z,7.10
2023-03-04T23:03:53.529Z,7.00
2023-03-04T23:06:27.778Z,7.00
2023-03-04T23:08:56.855Z,7.00
2023-03-04T23:11:27.071Z,7.10
2023-03-04T23:13:55.665Z,7.10
2023-03-04T23:16:28.696Z,7.00
2023-03-04T23:18:57.668Z,7.00
2023-03-04T23:21:28.256Z,7.00
2023-03-04T23:23:55.320Z,7.00
2023-03-04T23:26:28.765Z,7.00
2023-03-04T23:28:57.081Z,7.00
2023-03-04T23:31:25.773Z,7.00
2023-03-04T23:33:57.195Z,7.00
2023-03-04T23:36:27.463Z,7.00
2023-03-04T23:38:55.147Z,7.00
2023-03-04T23:41:29.545Z,7.00
2023-03-04T23:43:58.627Z,7.00
2023-03-04T23:46:26.529Z,7.00
2023-03-04T23:48:54.275Z,7.00
2023-03-04T23:51:24.510Z,7.00
2023-03-04T23:53:51.874Z,7.00
2023-03-04T23:56:23.252Z,6.90
2023-03-04T23:58:50.843Z,6.90
